Time;durP1;ratioP1;P1;durP2;ratioP2;P2;SDS_P1;SDS_P2;PMS_P1;PMS_P2;Temp;Humidity;BMP_temperature;BMP_pressure;BME280_temperature;BME280_humidity;BME280_pressure;Samples;Min_cycle;Max_cycle;Signal;HPM_P1;HPM_P2
2022/04/10 00:00:53;;;;;;;3.00;2.80;;;5.70;99.90;;;;;;5046881;28;20500;-67
2022/04/10 00:03:19;;;;;;;2.90;2.70;;;5.60;99.90;;;;;;5040313;28;20446;-68
2022/04/10 00:05:45;;;;;;;2.70;2.50;;;5.60;99.90;;;;;;5066950;28;20507;-68
2022/04/10 00:08:11;;;;;;;2.63;2.43;;;5.60;99.90;;;;;;5036971;28;20504;-68
2022/04/10 00:10:37;;;;;;;4.27;3.30;;;5.60;99.90;;;;;;5038855;28;20482;-69
2022/04/10 00:13:03;;;;;;;2.83;2.37;;;5.60;99.90;;;;;;5048240;28;20486;-67
2022/04/10 00:15:29;;;;;;;2.53;2.33;;;5.60;99.90;;;;;;5050784;28;20216;-67
2022/04/10 00:17:55;;;;;;;2.30;2.00;;;5.60;99.90;;;;;;5041369;28;20462;-69
2022/04/10 00:20:20;;;;;;;2.80;2.60;;;5.60;99.90;;;;;;5033980;28;20756;-68
2022/04/10 00:22:48;;;;;;;2.43;2.23;;;5.60;99.90;;;;;;5047336;28;20216;-72
2022/04/10 00:25:17;;;;;;;3.60;2.60;;;5.50;99.90;;;;;;5032520;28;20216;-69
2022/04/10 00:27:43;;;;;;;2.70;2.47;;;5.60;99.90;;;;;;5036391;28;20450;-70
2022/04/10 00:30:12;;;;;;;4.43;3.13;;;5.50;99.90;;;;;;5034559;28;20461;-68
2022/04/10 00:32:38;;;;;;;5.37;3.40;;;5.40;99.90;;;;;;5039211;28;20482;-68
2022/04/10 00:35:08;;;;;;;3.03;2.67;;;5.40;99.90;;;;;;5043026;28;20454;-68
2022/04/10 00:37:34;;;;;;;3.63;3.13;;;5.40;99.90;;;;;;5041189;28;20549;-67
2022/04/10 00:40:00;;;;;;;2.97;2.67;;;5.40;99.90;;;;;;5043497;28;20470;-66
2022/04/10 00:42:40;;;;;;;2.30;2.13;;;5.40;99.90;;;;;;5048537;28;20465;-69
2022/04/10 00:45:08;;;;;;;3.77;2.97;;;5.40;99.90;;;;;;5030662;28;20486;-69
2022/04/10 00:47:34;;;;;;;3.47;3.00;;;5.30;99.90;;;;;;5027624;28;20481;-69
2022/04/10 00:50:03;;;;;;;2.87;2.60;;;5.30;99.90;;;;;;5045569;28;20469;-68
2022/04/10 00:52:30;;;;;;;5.20;3.10;;;5.30;99.90;;;;;;5041201;28;20490;-71
2022/04/10 00:54:56;;;;;;;6.57;3.30;;;5.20;99.90;;;;;;5049273;28;20467;-68
2022/04/10 00:57:23;;;;;;;3.23;2.77;;;5.30;99.90;;;;;;5049802;28;20471;-68
2022/04/10 00:59:49;;;;;;;3.70;3.40;;;5.20;99.90;;;;;;5034873;28;20218;-68
2022/04/10 01:02:15;;;;;;;6.07;3.60;;;5.20;99.90;;;;;;5029953;28;20842;-67
2022/04/10 01:04:41;;;;;;;3.07;2.57;;;5.10;99.90;;;;;;5048989;28;20219;-68
2022/04/10 01:07:07;;;;;;;2.63;2.40;;;5.10;99.90;;;;;;5050638;28;20458;-69
2022/04/10 01:09:39;;;;;;;3.83;3.13;;;5.00;99.90;;;;;;5046022;28;20442;-68
2022/04/10 01:12:06;;;;;;;3.10;2.90;;;5.00;99.90;;;;;;5038568;28;20512;-68
2022/04/10 01:14:32;;;;;;;2.80;2.60;;;5.00;99.90;;;;;;5022715;28;20860;-69
2022/04/10 01:16:59;;;;;;;3.17;2.90;;;5.00;99.90;;;;;;5029705;28;20459;-70
2022/04/10 01:19:25;;;;;;;3.90;3.33;;;5.00;99.90;;;;;;5047939;28;20224;-68
2022/04/10 01:21:59;;;;;;;3.70;2.90;;;5.00;99.90;;;;;;5040182;28;20460;-69
2022/04/10 01:24:25;;;;;;;3.00;2.57;;;5.00;99.90;;;;;;5027678;28;20478;-67
2022/04/10 01:26:52;;;;;;;3.73;2.33;;;5.00;99.90;;;;;;5025890;28;20914;-68
2022/04/10 01:29:21;;;;;;;2.90;2.63;;;5.10;99.90;;;;;;5032537;28;20978;-68
2022/04/10 01:31:47;;;;;;;4.70;3.00;;;5.10;99.90;;;;;;5034138;28;20549;-68
2022/04/10 01:34:15;;;;;;;5.10;2.83;;;5.10;99.90;;;;;;5049104;28;20247;-67
2022/04/10 01:36:43;;;;;;;3.03;2.43;;;5.10;99.90;;;;;;5045256;28;20224;-68
2022/04/10 01:39:11;;;;;;;2.90;2.50;;;5.10;99.90;;;;;;5032696;28;20459;-68
2022/04/10 01:41:38;;;;;;;3.27;2.97;;;5.10;99.90;;;;;;5032683;28;20527;-67
2022/04/10 01:44:07;;;;;;;2.57;2.37;;;5.10;99.90;;;;;;5023509;28;20462;-70
2022/04/10 01:46:33;;;;;;;3.63;2.87;;;5.10;99.90;;;;;;5020651;28;20452;-68
2022/04/10 01:49:00;;;;;;;3.43;2.50;;;5.10;99.90;;;;;;5037436;28;20442;-68
2022/04/10 01:51:26;;;;;;;2.87;2.63;;;5.00;99.90;;;;;;5018629;28;20453;-68
2022/04/10 01:53:53;;;;;;;3.50;3.20;;;5.00;99.90;;;;;;5052895;28;20504;-67
2022/04/10 01:56:21;;;;;;;3.50;2.33;;;4.90;99.90;;;;;;5042956;28;20454;-68
2022/04/10 01:58:48;;;;;;;2.57;2.37;;;4.90;99.90;;;;;;5045196;28;20446;-67
2022/04/10 02:01:15;;;;;;;4.03;3.43;;;4.90;99.90;;;;;;5039204;28;20454;-69
2022/04/10 02:03:42;;;;;;;3.03;2.80;;;4.90;99.90;;;;;;5033952;28;20442;-67
2022/04/10 02:06:09;;;;;;;4.00;3.60;;;4.90;99.90;;;;;;5031182;28;20596;-70
2022/04/10 02:08:36;;;;;;;5.30;2.90;;;4.90;99.90;;;;;;5024199;28;20462;-70
2022/04/10 02:11:13;;;;;;;3.23;2.93;;;4.90;99.90;;;;;;5020813;28;20454;-67
2022/04/10 02:13:40;;;;;;;4.10;2.70;;;5.00;99.90;;;;;;5050474;28;20449;-67
2022/04/10 02:16:08;;;;;;;3.30;2.77;;;5.00;99.90;;;;;;5035371;28;20475;-69
2022/04/10 02:18:35;;;;;;;3.10;2.83;;;5.00;99.90;;;;;;5039409;28;20455;-68
2022/04/10 02:21:01;;;;;;;2.60;2.40;;;5.00;99.90;;;;;;5043797;28;20522;-68
2022/04/10 02:23:27;;;;;;;4.00;2.93;;;4.90;99.90;;;;;;5032181;28;20853;-69
2022/04/10 02:25:53;;;;;;;3.00;2.70;;;4.90;99.90;;;;;;5012386;28;20455;-70
2022/04/10 02:28:19;;;;;;;8.63;2.60;;;5.00;99.90;;;;;;5032723;28;20227;-67
2022/04/10 02:30:44;;;;;;;4.50;2.67;;;4.90;99.90;;;;;;5039977;28;20538;-70
2022/04/10 02:33:10;;;;;;;3.00;2.57;;;4.90;99.90;;;;;;5032108;28;20231;-68
2022/04/10 02:35:37;;;;;;;3.43;2.83;;;4.80;99.90;;;;;;5021471;28;20215;-71
2022/04/10 02:38:02;;;;;;;3.17;2.60;;;4.70;99.90;;;;;;5030094;28;20465;-69
2022/04/10 02:40:28;;;;;;;2.90;2.60;;;4.70;99.90;;;;;;5040309;28;20223;-68
2022/04/10 02:42:54;;;;;;;5.43;3.03;;;4.70;99.90;;;;;;5046184;28;20242;-69
2022/04/10 02:45:19;;;;;;;3.20;2.40;;;4.70;99.90;;;;;;5042676;28;20227;-69
2022/04/10 02:47:46;;;;;;;4.50;3.00;;;4.80;99.90;;;;;;5036078;28;20630;-68
2022/04/10 02:50:13;;;;;;;4.93;3.07;;;4.70;99.90;;;;;;5029640;28;20472;-68
2022/04/10 02:52:40;;;;;;;5.20;3.53;;;4.60;99.90;;;;;;5033672;28;20444;-68
2022/04/10 02:55:08;;;;;;;3.43;2.77;;;4.60;99.90;;;;;;5033574;28;20458;-68
2022/04/10 02:57:47;;;;;;;3.47;2.70;;;4.60;99.90;;;;;;5037821;28;20984;-67
2022/04/10 03:00:13;;;;;;;2.87;2.53;;;4.60;99.90;;;;;;5008349;28;20468;-72
2022/04/10 03:02:40;;;;;;;4.30;3.40;;;4.60;99.90;;;;;;5003937;28;20220;-69
2022/04/10 03:05:08;;;;;;;3.20;2.30;;;4.60;99.90;;;;;;5006040;28;20459;-68
2022/04/10 03:07:34;;;;;;;5.33;3.13;;;4.60;99.90;;;;;;5002421;28;20510;-68
2022/04/10 03:09:59;;;;;;;2.77;2.57;;;4.60;99.90;;;;;;4986684;28;20460;-68
2022/04/10 03:12:25;;;;;;;5.90;2.80;;;4.60;99.90;;;;;;5001357;28;20451;-69
2022/04/10 03:14:52;;;;;;;5.40;2.73;;;4.60;99.90;;;;;;5018736;28;20758;-68
2022/04/10 03:17:17;;;;;;;3.40;2.83;;;4.50;99.90;;;;;;5023310;28;20471;-69
2022/04/10 03:19:43;;;;;;;3.70;3.17;;;4.50;99.90;;;;;;5011502;28;20217;-69
2022/04/10 03:22:09;;;;;;;4.57;2.70;;;4.60;99.90;;;;;;5006986;28;20402;-67
2022/04/10 03:24:35;;;;;;;7.50;3.07;;;4.50;99.90;;;;;;5023535;28;20450;-69
2022/04/10 03:27:01;;;;;;;5.20;2.90;;;4.50;99.90;;;;;;5012176;28;20999;-72
2022/04/10 03:29:27;;;;;;;5.07;2.77;;;4.50;99.90;;;;;;5025621;28;20637;-69
2022/04/10 03:31:52;;;;;;;3.07;2.73;;;4.50;99.90;;;;;;5021991;28;20471;-68
2022/04/10 03:34:18;;;;;;;2.40;2.20;;;4.40;99.90;;;;;;5008715;28;20252;-69
2022/04/10 03:36:44;;;;;;;3.60;2.50;;;4.40;99.90;;;;;;5008114;28;20236;-68
2022/04/10 03:39:10;;;;;;;3.80;2.90;;;4.40;99.90;;;;;;5027522;28;20971;-73
2022/04/10 03:41:36;;;;;;;2.67;2.40;;;4.40;99.90;;;;;;5023417;28;20232;-68
2022/04/10 03:44:01;;;;;;;4.37;2.90;;;4.40;99.90;;;;;;5025593;28;20260;-71
2022/04/10 03:46:27;;;;;;;4.07;2.77;;;4.40;99.90;;;;;;5026836;28;20221;-69
2022/04/10 03:48:53;;;;;;;3.10;2.77;;;4.40;99.90;;;;;;5023497;28;20455;-68
2022/04/10 03:51:20;;;;;;;2.87;2.60;;;4.40;99.90;;;;;;5003813;28;20455;-68
2022/04/10 03:53:46;;;;;;;5.00;2.87;;;4.30;99.90;;;;;;5023703;28;20460;-71
2022/04/10 03:56:14;;;;;;;3.33;2.43;;;4.30;99.90;;;;;;5025117;28;20468;-69
2022/04/10 03:58:40;;;;;;;3.80;2.80;;;4.30;99.90;;;;;;5027408;28;20451;-69
2022/04/10 04:01:06;;;;;;;3.63;2.60;;;4.30;99.90;;;;;;5022564;28;20456;-69
2022/04/10 04:03:32;;;;;;;5.47;3.17;;;4.30;99.90;;;;;;5023200;28;20217;-69
2022/04/10 04:05:58;;;;;;;4.70;3.10;;;4.30;99.90;;;;;;5022266;28;20216;-69
2022/04/10 04:08:24;;;;;;;3.07;2.63;;;4.30;99.90;;;;;;5013361;28;21055;-69
2022/04/10 04:10:51;;;;;;;2.83;2.57;;;4.30;99.90;;;;;;4992358;28;20312;-68
2022/04/10 04:13:18;;;;;;;2.90;2.70;;;4.30;99.90;;;;;;5011714;28;20467;-70
2022/04/10 04:15:43;;;;;;;3.27;2.60;;;4.40;99.90;;;;;;5016243;28;20468;-68
2022/04/10 04:18:09;;;;;;;5.63;2.73;;;4.40;99.90;;;;;;5011112;28;20296;-68
2022/04/10 04:20:37;;;;;;;3.13;2.83;;;4.30;99.90;;;;;;4993220;28;20452;-70
2022/04/10 04:23:03;;;;;;;2.23;2.07;;;4.40;99.90;;;;;;5009510;28;20452;-68
2022/04/10 04:25:31;;;;;;;2.77;2.50;;;4.40;99.90;;;;;;4991323;28;20874;-69
2022/04/10 04:27:58;;;;;;;2.93;2.70;;;4.40;99.90;;;;;;5009293;28;20591;-67
2022/04/10 04:30:24;;;;;;;3.63;2.63;;;4.40;99.90;;;;;;4998638;28;20860;-68
2022/04/10 04:32:52;;;;;;;2.97;2.73;;;4.40;99.90;;;;;;5013594;28;20826;-70
2022/04/10 04:35:18;;;;;;;2.50;1.93;;;4.40;99.90;;;;;;4988920;28;20459;-71
2022/04/10 04:37:44;;;;;;;3.87;2.40;;;4.40;99.90;;;;;;5012712;28;20236;-69
2022/04/10 04:40:15;;;;;;;3.87;3.53;;;4.40;99.90;;;;;;5007791;28;20460;-70
2022/04/10 04:42:42;;;;;;;3.33;2.80;;;4.40;99.90;;;;;;5011384;28;20464;-70
2022/04/10 04:45:09;;;;;;;2.90;2.70;;;4.40;99.90;;;;;;5009138;28;20452;-68
2022/04/10 04:47:36;;;;;;;2.60;2.40;;;4.40;99.90;;;;;;5009109;28;20475;-68
2022/04/10 04:50:02;;;;;;;3.07;2.43;;;4.40;99.90;;;;;;5008451;28;20514;-70
2022/04/10 04:52:33;;;;;;;3.30;2.70;;;4.40;99.90;;;;;;4997095;28;20448;-68
2022/04/10 04:54:58;;;;;;;2.83;2.60;;;4.40;99.90;;;;;;4991608;28;20543;-68
2022/04/10 04:57:25;;;;;;;2.90;2.63;;;4.40;99.90;;;;;;5008306;28;20232;-70
2022/04/10 04:59:52;;;;;;;4.43;2.40;;;4.30;99.90;;;;;;5009213;28;20867;-69
2022/04/10 05:02:18;;;;;;;3.70;2.17;;;4.30;99.90;;;;;;4988712;28;20482;-71
2022/04/10 05:04:44;;;;;;;2.73;2.53;;;4.20;99.90;;;;;;5009982;28;20980;-69
2022/04/10 05:07:10;;;;;;;4.90;2.77;;;4.20;99.90;;;;;;4997610;28;20561;-70
2022/04/10 05:09:36;;;;;;;2.87;2.67;;;4.10;99.90;;;;;;5014064;28;20217;-69
2022/04/10 05:12:02;;;;;;;4.90;3.27;;;4.10;99.90;;;;;;5008684;28;20453;-70
2022/04/10 05:14:29;;;;;;;4.30;3.10;;;4.10;99.90;;;;;;5006562;28;20217;-72
2022/04/10 05:16:56;;;;;;;3.90;2.80;;;4.20;99.90;;;;;;4989503;28;20492;-69
2022/04/10 05:19:23;;;;;;;3.10;2.60;;;4.20;99.90;;;;;;5005556;28;20579;-68
2022/04/10 05:21:50;;;;;;;3.17;2.87;;;4.20;99.90;;;;;;5004993;28;20470;-69
2022/04/10 05:24:16;;;;;;;3.17;2.80;;;4.20;99.90;;;;;;5002418;28;20543;-68
2022/04/10 05:26:42;;;;;;;5.70;3.33;;;4.20;99.90;;;;;;4988488;28;20589;-70
2022/04/10 05:29:08;;;;;;;5.20;3.03;;;4.20;99.90;;;;;;5006923;28;20681;-70
2022/04/10 05:31:34;;;;;;;3.80;3.40;;;4.10;99.90;;;;;;5006544;28;20892;-68
2022/04/10 05:34:00;;;;;;;4.40;3.60;;;4.10;99.90;;;;;;5008664;28;20992;-67
2022/04/10 05:36:26;;;;;;;2.37;2.17;;;4.10;99.90;;;;;;5002599;28;20460;-69
2022/04/10 05:38:52;;;;;;;3.13;2.83;;;4.10;99.90;;;;;;5006230;28;20221;-69
2022/04/10 05:41:22;;;;;;;3.40;3.00;;;4.10;99.90;;;;;;5003640;28;20452;-68
2022/04/10 05:43:52;;;;;;;4.73;2.87;;;4.10;99.90;;;;;;5003975;28;20460;-68
2022/04/10 05:46:19;;;;;;;3.47;3.13;;;4.10;99.90;;;;;;4989516;28;20460;-68
2022/04/10 05:48:50;;;;;;;4.07;3.30;;;4.10;99.90;;;;;;5004169;28;20467;-69
2022/04/10 05:51:17;;;;;;;3.70;3.10;;;4.00;99.90;;;;;;5002884;28;20480;-69
2022/04/10 05:53:43;;;;;;;4.00;2.80;;;4.00;99.90;;;;;;5010811;28;20490;-70
2022/04/10 05:56:09;;;;;;;3.30;3.00;;;4.00;99.90;;;;;;5005839;28;20492;-68
2022/04/10 05:58:41;;;;;;;4.17;3.10;;;4.00;99.90;;;;;;5005865;28;20217;-69
2022/04/10 06:01:07;;;;;;;3.33;2.80;;;4.00;99.90;;;;;;5006910;28;20452;-70
2022/04/10 06:03:32;;;;;;;3.20;2.90;;;4.00;99.90;;;;;;5005646;28;20213;-68
2022/04/10 06:06:01;;;;;;;4.10;3.13;;;4.10;99.90;;;;;;5006318;28;20244;-69
2022/04/10 06:08:34;;;;;;;4.20;3.23;;;4.10;99.90;;;;;;5005821;28;20453;-67
2022/04/10 06:11:00;;;;;;;3.90;2.97;;;4.10;99.90;;;;;;5003747;28;20475;-69
2022/04/10 06:13:26;;;;;;;5.10;3.63;;;4.20;99.90;;;;;;5001864;28;20291;-67
2022/04/10 06:15:57;;;;;;;4.90;3.37;;;4.20;99.90;;;;;;5004353;28;20873;-68
2022/04/10 06:18:23;;;;;;;4.60;3.17;;;4.20;99.90;;;;;;5004629;28;20447;-68
2022/04/10 06:20:49;;;;;;;4.00;2.70;;;4.20;99.90;;;;;;5004781;28;21106;-68
2022/04/10 06:23:15;;;;;;;6.00;3.03;;;4.20;99.90;;;;;;5003957;28;20499;-68
2022/04/10 06:25:43;;;;;;;5.33;3.50;;;4.20;99.90;;;;;;5001884;28;20468;-70
2022/04/10 06:28:11;;;;;;;5.73;4.13;;;4.20;99.90;;;;;;5004387;28;20489;-68
2022/04/10 06:30:43;;;;;;;7.70;3.70;;;4.10;99.90;;;;;;5019384;28;20445;-67
2022/04/10 06:33:10;;;;;;;5.93;3.43;;;4.00;99.90;;;;;;5006658;28;20531;-70
2022/04/10 06:35:36;;;;;;;4.47;3.70;;;4.00;99.90;;;;;;5010521;28;20453;-67
2022/04/10 06:38:05;;;;;;;12.23;3.90;;;3.90;99.90;;;;;;5009112;28;20455;-68
2022/04/10 06:40:31;;;;;;;5.63;4.10;;;3.90;99.90;;;;;;5006478;28;20440;-67
2022/04/10 06:42:58;;;;;;;4.30;2.90;;;3.90;99.90;;;;;;5004999;28;20488;-68
2022/04/10 06:45:24;;;;;;;4.87;3.40;;;3.90;99.90;;;;;;5008920;28;20491;-68
2022/04/10 06:47:55;;;;;;;6.80;3.57;;;3.90;99.90;;;;;;5009026;28;20232;-68
2022/04/10 06:50:22;;;;;;;4.20;3.27;;;3.90;99.90;;;;;;5009326;28;20460;-69
2022/04/10 06:52:49;;;;;;;3.60;3.20;;;3.80;99.90;;;;;;5008239;28;20452;-69
2022/04/10 06:55:16;;;;;;;5.53;3.67;;;3.80;99.90;;;;;;5007201;28;21087;-68
2022/04/10 06:57:43;;;;;;;4.07;3.30;;;3.80;99.90;;;;;;4991938;28;20869;-68
2022/04/10 07:00:10;;;;;;;3.50;3.00;;;3.80;99.90;;;;;;4988160;28;20523;-68
2022/04/10 07:02:37;;;;;;;5.10;3.70;;;3.80;99.90;;;;;;5004863;28;20896;-67
2022/04/10 07:05:04;;;;;;;4.30;3.33;;;3.80;99.90;;;;;;4984686;28;20515;-68
2022/04/10 07:07:31;;;;;;;4.47;3.43;;;3.80;99.90;;;;;;5007785;28;20445;-68
2022/04/10 07:09:59;;;;;;;6.27;3.90;;;3.80;99.90;;;;;;5007304;28;20455;-67
2022/04/10 07:12:25;;;;;;;6.73;3.77;;;3.80;99.90;;;;;;4989577;28;20593;-67
2022/04/10 07:14:53;;;;;;;4.83;2.93;;;3.80;99.90;;;;;;4989268;28;20507;-67
2022/04/10 07:17:19;;;;;;;4.13;3.47;;;3.90;99.90;;;;;;5022407;28;20833;-68
2022/04/10 07:19:50;;;;;;;5.10;4.03;;;3.90;99.90;;;;;;5012196;28;20480;-69
2022/04/10 07:25:03;;;;;;;5.53;4.27;;;3.90;99.90;;;;;;5006044;28;20596;-68
2022/04/10 07:27:29;;;;;;;4.40;3.23;;;3.90;99.90;;;;;;5006652;28;20999;-68
2022/04/10 07:30:05;;;;;;;4.10;3.03;;;3.90;99.90;;;;;;5004728;28;20506;-67
2022/04/10 07:32:34;;;;;;;5.50;3.20;;;3.90;99.90;;;;;;4990397;28;20535;-68
2022/04/10 07:35:09;;;;;;;3.20;2.70;;;4.00;99.90;;;;;;4992524;28;20487;-68
2022/04/10 07:37:49;;;;;;;8.17;4.17;;;4.10;99.90;;;;;;5007402;28;20456;-68
2022/04/10 07:40:15;;;;;;;6.97;3.90;;;4.10;99.90;;;;;;4993659;28;20464;-68
2022/04/10 07:42:43;;;;;;;4.00;3.63;;;4.10;99.90;;;;;;4991063;28;20502;-67
2022/04/10 07:47:25;;;;;;;5.87;3.63;;;4.10;99.90;;;;;;5009644;28;20460;-69
2022/04/10 07:48:09;;;;;;;8.40;4.87;;;4.20;99.90;;;;;;5011787;28;20771;-67
2022/04/10 07:50:37;;;;;;;5.00;3.23;;;4.20;99.90;;;;;;5010883;28;20463;-70
2022/04/10 07:53:04;;;;;;;6.33;3.87;;;4.30;99.90;;;;;;4992553;28;20457;-68
2022/04/10 07:55:32;;;;;;;5.10;3.30;;;4.30;99.90;;;;;;5012125;28;20459;-67
2022/04/10 07:58:03;;;;;;;3.80;3.37;;;4.40;99.90;;;;;;5010486;28;20840;-68
2022/04/10 08:00:32;;;;;;;4.57;3.63;;;4.40;99.90;;;;;;5009110;28;20463;-67
2022/04/10 08:03:01;;;;;;;6.37;4.03;;;4.50;99.90;;;;;;4992157;28;20220;-71
2022/04/10 08:05:51;;;;;;;18.63;4.43;;;4.50;99.90;;;;;;4998016;28;20518;-67
2022/04/10 08:08:19;;;;;;;8.57;4.00;;;4.60;99.90;;;;;;5011169;28;20460;-67
2022/04/10 08:10:44;;;;;;;5.33;3.97;;;4.60;99.90;;;;;;5013054;28;21011;-70
2022/04/10 08:13:10;;;;;;;6.57;3.40;;;4.70;99.90;;;;;;4993132;28;20249;-68
2022/04/10 08:15:36;;;;;;;10.50;4.47;;;4.70;99.90;;;;;;5011505;28;20228;-69
2022/04/10 08:18:02;;;;;;;8.40;3.60;;;4.80;99.90;;;;;;5013850;28;20637;-67
2022/04/10 08:20:28;;;;;;;5.87;3.80;;;4.80;99.90;;;;;;4991878;28;20433;-67
2022/04/10 08:22:55;;;;;;;8.63;4.10;;;4.90;99.90;;;;;;5010189;28;20661;-70
2022/04/10 08:25:25;;;;;;;6.93;3.50;;;4.90;99.90;;;;;;5009074;28;20245;-68
2022/04/10 08:27:51;;;;;;;5.67;4.20;;;5.00;99.90;;;;;;4992883;28;21097;-70
2022/04/10 08:30:17;;;;;;;5.43;3.90;;;5.00;99.90;;;;;;5008747;28;20471;-68
2022/04/10 08:32:44;;;;;;;7.27;3.90;;;5.00;99.90;;;;;;5010536;28;20811;-68
2022/04/10 08:35:11;;;;;;;3.87;3.23;;;5.10;99.90;;;;;;5011447;28;20217;-67
2022/04/10 08:37:38;;;;;;;5.50;4.30;;;5.10;99.90;;;;;;4992980;28;20469;-69
2022/04/10 08:40:05;;;;;;;4.10;3.50;;;5.20;99.90;;;;;;5009707;28;20806;-66
2022/04/10 08:42:31;;;;;;;8.30;4.40;;;5.20;99.90;;;;;;4991091;28;20473;-67
2022/04/10 08:44:58;;;;;;;6.83;4.40;;;5.20;99.90;;;;;;5009341;28;20506;-71
2022/04/10 08:47:25;;;;;;;7.43;4.10;;;5.30;99.90;;;;;;5010658;28;20460;-68
2022/04/10 08:49:52;;;;;;;6.87;3.97;;;5.30;99.90;;;;;;5013432;28;20464;-74
2022/04/10 08:52:19;;;;;;;4.70;3.50;;;5.40;99.90;;;;;;5008899;28;20513;-73
2022/04/10 08:54:45;;;;;;;6.93;4.80;;;5.40;99.90;;;;;;5010698;28;20449;-68
2022/04/10 08:57:12;;;;;;;4.97;4.07;;;5.50;99.90;;;;;;5008499;28;20508;-72
2022/04/10 08:59:38;;;;;;;4.37;3.67;;;5.50;99.90;;;;;;4994400;28;20598;-69
2022/04/10 09:02:05;;;;;;;6.93;4.13;;;5.60;99.90;;;;;;5010773;28;20484;-68
2022/04/10 09:04:31;;;;;;;6.93;3.93;;;5.60;99.90;;;;;;5008366;28;20463;-67
2022/04/10 09:06:59;;;;;;;5.67;3.80;;;5.60;99.90;;;;;;5015205;28;20460;-67
2022/04/10 09:09:25;;;;;;;4.60;4.20;;;5.70;99.90;;;;;;5008666;28;20842;-68
2022/04/10 09:11:54;;;;;;;7.93;3.60;;;5.70;99.90;;;;;;5008581;28;20460;-68
2022/04/10 09:14:24;;;;;;;6.03;4.03;;;5.80;99.90;;;;;;5012683;28;20587;-70
2022/04/10 09:17:29;;;;;;;5.50;4.00;;;5.80;99.90;;;;;;5010919;28;20476;-70
2022/04/10 09:19:56;;;;;;;5.70;3.50;;;5.90;99.90;;;;;;4984583;28;20506;-69
2022/04/10 09:22:37;;;;;;;4.20;3.40;;;5.90;99.90;;;;;;5009471;28;20448;-67
2022/04/10 09:25:13;;;;;;;4.63;3.60;;;6.00;99.90;;;;;;5012936;28;20463;-68
2022/04/10 09:27:44;;;;;;;5.97;3.33;;;6.10;99.90;;;;;;5006159;28;20463;-70
2022/04/10 09:30:17;;;;;;;5.30;3.67;;;6.10;99.90;;;;;;4990646;28;20499;-76
2022/04/10 09:32:45;;;;;;;5.80;3.70;;;6.20;99.90;;;;;;5013342;28;20525;-71
2022/04/10 09:35:14;;;;;;;4.53;3.50;;;6.30;99.90;;;;;;5008967;28;20468;-73
2022/04/10 09:37:51;;;;;;;4.30;3.10;;;6.40;99.90;;;;;;5008477;28;20464;-70
2022/04/10 09:40:23;;;;;;;4.23;3.40;;;6.50;99.90;;;;;;5001298;28;20444;-72
2022/04/10 09:42:50;;;;;;;4.47;3.20;;;6.60;99.90;;;;;;5008715;28;20561;-70
2022/04/10 09:45:28;;;;;;;7.00;4.10;;;6.70;99.90;;;;;;5005755;28;20548;-70
2022/04/10 09:47:53;;;;;;;3.47;3.23;;;6.70;99.90;;;;;;5007773;28;20468;-74
2022/04/10 09:50:32;;;;;;;4.60;3.87;;;6.80;99.90;;;;;;4990521;28;20467;-72
2022/04/10 09:53:05;;;;;;;7.60;4.43;;;6.90;99.90;;;;;;5027588;28;20452;-71
2022/04/10 09:55:34;;;;;;;7.00;4.07;;;6.90;99.90;;;;;;5003076;28;20894;-70
2022/04/10 09:58:00;;;;;;;5.40;4.20;;;7.10;99.90;;;;;;5007030;28;21015;-74
2022/04/10 10:00:27;;;;;;;6.93;5.07;;;7.20;99.90;;;;;;5006550;28;20464;-70
2022/04/10 10:02:54;;;;;;;6.90;4.80;;;7.30;99.90;;;;;;4991192;28;20471;-71
2022/04/10 10:05:20;;;;;;;5.70;3.97;;;7.50;99.90;;;;;;4990232;28;20987;-72
2022/04/10 10:07:48;;;;;;;3.93;3.40;;;7.60;99.90;;;;;;4991273;28;20453;-74
2022/04/10 10:10:17;;;;;;;4.33;3.90;;;7.70;99.90;;;;;;4988229;28;21003;-71
2022/04/10 10:12:46;;;;;;;6.60;4.30;;;7.80;99.90;;;;;;5008675;28;20463;-72
2022/04/10 10:15:12;;;;;;;5.60;4.53;;;7.90;99.90;;;;;;4990388;28;20448;-70
2022/04/10 10:17:38;;;;;;;4.37;3.97;;;8.00;99.90;;;;;;5007970;28;20480;-71
2022/04/10 10:20:06;;;;;;;4.03;3.63;;;8.10;99.90;;;;;;5008530;28;20456;-69
2022/04/10 10:22:32;;;;;;;5.37;4.47;;;8.20;99.90;;;;;;5008325;28;20444;-70
2022/04/10 10:25:07;;;;;;;7.70;4.17;;;8.40;99.90;;;;;;5008983;28;20990;-71
2022/04/10 10:27:36;;;;;;;5.93;4.53;;;8.70;99.90;;;;;;5008818;28;20459;-74
2022/04/10 10:30:09;;;;;;;3.97;3.43;;;8.80;99.90;;;;;;5014282;28;20832;-71
2022/04/10 10:32:55;;;;;;;7.20;4.53;;;9.00;99.90;;;;;;5015210;28;20492;-72
2022/04/10 10:35:35;;;;;;;8.30;4.50;;;9.20;99.90;;;;;;4992845;28;20471;-71
2022/04/10 10:38:01;;;;;;;4.70;3.70;;;9.30;99.90;;;;;;4989662;28;20469;-72
2022/04/10 10:40:27;;;;;;;4.63;3.57;;;9.30;99.90;;;;;;5008715;28;20440;-72
2022/04/10 10:42:58;;;;;;;5.00;3.93;;;9.30;99.90;;;;;;5007246;28;20530;-71
2022/04/10 10:45:43;;;;;;;6.67;4.73;;;9.30;99.90;;;;;;4989677;28;20225;-71
2022/04/10 10:48:31;;;;;;;5.37;4.10;;;9.30;99.90;;;;;;5009907;28;20456;-74
2022/04/10 10:51:01;;;;;;;7.73;4.63;;;9.30;99.90;;;;;;5007489;28;20487;-70
2022/04/10 10:53:55;;;;;;;5.63;4.70;;;9.50;99.90;;;;;;5009060;28;20436;-71
2022/04/10 10:56:32;;;;;;;4.87;4.23;;;9.70;99.90;;;;;;5008685;28;20488;-70
2022/04/10 10:59:22;;;;;;;5.60;4.93;;;9.70;99.90;;;;;;5009152;28;20466;-72
2022/04/10 11:02:00;;;;;;;8.10;4.60;;;9.60;99.90;;;;;;5005061;28;20463;-74
2022/04/10 11:04:29;;;;;;;5.70;4.70;;;9.60;99.90;;;;;;5008003;28;20494;-71
2022/04/10 11:07:08;;;;;;;6.57;5.20;;;9.70;99.90;;;;;;5009579;28;20464;-71
2022/04/10 11:09:34;;;;;;;5.07;4.57;;;9.70;99.90;;;;;;5007463;28;20535;-71
2022/04/10 11:12:00;;;;;;;7.07;4.47;;;9.70;99.90;;;;;;5003353;28;20539;-70
2022/04/10 11:14:39;;;;;;;11.13;3.90;;;9.80;99.90;;;;;;5004662;28;20223;-71
2022/04/10 11:17:25;;;;;;;9.10;5.53;;;9.90;99.90;;;;;;5005043;28;20476;-73
2022/04/10 11:20:00;;;;;;;7.67;5.17;;;9.90;99.90;;;;;;4992100;28;20460;-74
2022/04/10 11:22:37;;;;;;;5.60;4.33;;;9.90;99.90;;;;;;5007848;28;20877;-70
2022/04/10 11:25:08;;;;;;;6.90;4.83;;;9.90;99.90;;;;;;5008792;28;20496;-73
2022/04/10 11:27:43;;;;;;;7.30;5.30;;;9.90;99.90;;;;;;5010207;28;20468;-71
2022/04/10 11:30:14;;;;;;;4.30;3.53;;;9.90;99.90;;;;;;5009053;28;20895;-72
2022/04/10 11:32:54;;;;;;;12.03;4.70;;;9.90;99.90;;;;;;4993669;28;20547;-73
2022/04/10 11:35:23;;;;;;;5.30;4.10;;;10.10;99.90;;;;;;5007538;28;20468;-71
2022/04/10 11:37:51;;;;;;;6.77;4.40;;;10.20;99.90;;;;;;5006058;28;20474;-70
2022/04/10 11:40:23;;;;;;;8.53;6.03;;;10.30;99.90;;;;;;5008701;28;20491;-70
2022/04/10 11:42:49;;;;;;;7.20;4.97;;;10.70;99.90;;;;;;5007996;28;21004;-69
2022/04/10 11:45:15;;;;;;;12.13;5.50;;;10.80;99.90;;;;;;5007165;28;21318;-72
2022/04/10 11:47:42;;;;;;;7.87;5.33;;;10.90;99.90;;;;;;5010519;28;20515;-69
2022/04/10 11:50:11;;;;;;;5.70;4.83;;;10.80;99.90;;;;;;5005548;28;20551;-70
2022/04/10 11:52:37;;;;;;;7.40;4.97;;;10.90;99.90;;;;;;5008059;28;20471;-70
2022/04/10 11:55:08;;;;;;;6.83;4.50;;;11.00;99.90;;;;;;5007696;28;20456;-71
2022/04/10 11:57:38;;;;;;;4.90;4.37;;;11.10;99.90;;;;;;4991834;28;20229;-70
2022/04/10 12:00:09;;;;;;;7.93;5.33;;;11.10;99.90;;;;;;5022535;28;20472;-73
2022/04/10 12:02:35;;;;;;;5.87;4.63;;;11.10;99.90;;;;;;5008366;28;20538;-69
2022/04/10 12:05:03;;;;;;;7.60;5.90;;;11.20;99.90;;;;;;5008244;28;21114;-70
2022/04/10 12:07:29;;;;;;;8.13;5.27;;;11.10;99.90;;;;;;5005080;28;20521;-71
2022/04/10 12:09:55;;;;;;;7.07;4.73;;;11.10;99.90;;;;;;5007600;28;20540;-76
2022/04/10 12:12:31;;;;;;;6.93;4.67;;;10.90;99.90;;;;;;5009501;28;20704;-72
2022/04/10 12:14:56;;;;;;;4.37;3.97;;;10.60;99.90;;;;;;5006464;28;20247;-71
2022/04/10 12:17:22;;;;;;;3.27;2.60;;;10.40;99.90;;;;;;5008974;28;21054;-70
2022/04/10 12:19:54;;;;;;;3.70;2.67;;;10.10;99.90;;;;;;5008578;28;20227;-73
2022/04/10 12:22:24;;;;;;;3.13;2.90;;;9.80;99.90;;;;;;5008800;28;20236;-71
2022/04/10 12:24:57;;;;;;;3.93;3.17;;;9.70;99.90;;;;;;5007286;28;20462;-69
2022/04/10 12:27:23;;;;;;;7.30;3.20;;;9.60;99.90;;;;;;5011370;28;20595;-69
2022/04/10 12:29:49;;;;;;;3.80;2.80;;;9.50;99.90;;;;;;5009517;28;20551;-72
2022/04/10 12:32:15;;;;;;;9.87;4.47;;;9.50;99.90;;;;;;5014464;28;20472;-69
2022/04/10 12:34:42;;;;;;;5.23;3.07;;;9.60;99.90;;;;;;5012890;28;20224;-71
2022/04/10 12:37:12;;;;;;;5.50;3.63;;;9.60;99.90;;;;;;5009589;28;20472;-75
2022/04/10 12:39:39;;;;;;;3.57;2.77;;;9.60;99.90;;;;;;4990597;28;20542;-69
2022/04/10 12:42:10;;;;;;;4.93;3.10;;;9.70;99.90;;;;;;5011998;28;20460;-72
2022/04/10 12:44:37;;;;;;;5.87;3.60;;;9.80;99.90;;;;;;5009631;28;20960;-69
2022/04/10 12:47:07;;;;;;;5.37;3.50;;;9.90;99.90;;;;;;5006781;28;20460;-71
2022/04/10 12:49:35;;;;;;;4.07;3.47;;;10.00;99.90;;;;;;5015829;28;20456;-69
2022/04/10 12:52:05;;;;;;;8.53;3.40;;;10.10;99.90;;;;;;4996622;28;20461;-71
2022/04/10 12:54:42;;;;;;;5.90;3.27;;;10.10;99.90;;;;;;4992009;28;20843;-70
2022/04/10 12:57:24;;;;;;;4.47;3.70;;;10.20;99.90;;;;;;5008423;28;20464;-70
2022/04/10 12:59:50;;;;;;;2.93;2.63;;;10.10;99.90;;;;;;4989276;28;20829;-69
2022/04/10 13:02:26;;;;;;;10.13;3.50;;;10.20;99.90;;;;;;5004267;28;20460;-70
2022/04/10 13:04:52;;;;;;;3.73;2.67;;;10.40;99.90;;;;;;5005257;28;20208;-71